This is the latest recevied weather packets stored in our database for station/object TA1FM. If no packets are shown the sender has not sent any weather packets the latest 10 day(s).
| Time | Temp. | Humidity | Pressure | Rain* | Wind** | Luminosity | Snow |
|---|---|---|---|---|---|---|---|
| 1778011361 | 1.11° C | 50% | 901 hPa | - | - | - | - |
| 1778010461 | 8.89° C | 49% | 911.8 hPa | - | - | - | - |
| 1778009561 | 8.89° C | 47% | 911.8 hPa | - | - | - | - |
| 1778008660 | -0.56° C | 47% | 897.6 hPa | - | - | - | - |
| 1778007760 | 9.44° C | 46% | 911.9 hPa | - | - | - | - |
| 1778006860 | 9.44° C | 46% | 911.8 hPa | - | - | - | - |
| 1778005960 | 9.44° C | 45% | 911.7 hPa | - | - | - | - |
| 1778005060 | 10° C | 45% | 911.6 hPa | - | - | - | - |
| 1778004160 | 10° C | 44% | 911.6 hPa | - | - | - | - |
| 1778003260 | 10.56° C | 43% | 911.5 hPa | - | - | - | - |
| 1778002359 | 10.56° C | 43% | 911.4 hPa | - | - | - | - |
| 1778001459 | 11.11° C | 42% | 911.4 hPa | - | - | - | - |
| 1778000559 | 11.67° C | 41% | 911.5 hPa | - | - | - | - |
| 1777998759 | 11.67° C | 42% | 911.4 hPa | - | - | - | - |
| 1777997859 | 12.22° C | 43% | 911.4 hPa | - | - | - | - |
| 1777996959 | 12.22° C | 42% | 911.5 hPa | - | - | - | - |
| 1777996058 | 12.22° C | 42% | 911.5 hPa | - | - | - | - |
| 1777995158 | 12.22° C | 42% | 911.5 hPa | - | - | - | - |
| 1777994258 | 12.78° C | 42% | 912.6 hPa | - | - | - | - |
| 1777993358 | 12.78° C | 42% | 911.7 hPa | - | - | - | - |
| 1777992458 | 12.78° C | 42% | 911.7 hPa | - | - | - | - |
| 1777991557 | 13.33° C | 42% | 911.7 hPa | - | - | - | - |
| 1777990657 | 13.33° C | 43% | 911.7 hPa | - | - | - | - |
| 1777989757 | 13.33° C | 41% | 911.7 hPa | - | - | - | - |
| 1777988857 | 13.89° C | 41% | 911.7 hPa | - | - | - | - |
* Rain since midnight (hover to see other rain measurements)
** Current wind speed in m/s (hover to see current wind gust speed)